Time;durP1;ratioP1;P1;durP2;ratioP2;P2;SDS_P1;SDS_P2;PMS_P1;PMS_P2;Temp;Humidity;BMP_temperature;BMP_pressure;BME280_temperature;BME280_humidity;BME280_pressure;Samples;Min_cycle;Max_cycle;Signal;HPM_P1;HPM_P2
2023/10/21 00:00:54;;;;;;;;;;;;;;;29.95;79.24;101129.91;5053684;28;70524;-41
2023/10/21 00:03:25;;;;;;;;;;;;;;;29.97;79.70;101145.91;5043564;28;66609;-41
2023/10/21 00:06:01;;;;;;;;;;;;;;;30.00;80.02;101153.59;5048014;28;69988;-45
2023/10/21 00:08:33;;;;;;;;;;;;;;;30.03;80.94;101150.47;5042927;28;65930;-42
2023/10/21 00:11:09;;;;;;;;;;;;;;;30.04;80.81;101157.56;5037020;28;69579;-42
2023/10/21 00:13:41;;;;;;;;;;;;;;;30.06;80.53;101155.47;5029200;28;67108;-41
2023/10/21 00:16:16;;;;;;;;;;;;;;;30.07;80.46;101165.28;5040992;28;70280;-43
2023/10/21 00:18:51;;;;;;;;;;;;;;;30.09;80.65;101159.63;5037451;28;67114;-40
2023/10/21 00:21:27;;;;;;;;;;;;;;;30.11;80.77;101163.81;5038703;28;70293;-41
2023/10/21 00:24:04;;;;;;;;;;;;;;;29.98;80.90;101139.47;5045459;28;66269;-42
2023/10/21 00:26:49;;;;;;;;;;;;;;;30.12;80.48;101151.13;5036068;28;70638;-42
2023/10/21 00:29:19;;;;;;;;;;;;;;;30.13;80.89;101156.31;5048796;28;65900;-42
2023/10/21 00:31:51;;;;;;;;;;;;;;;30.12;80.79;101154.66;5038053;28;70522;-41
2023/10/21 00:34:25;;;;;;;;;;;;;;;30.13;79.52;101155.50;5038246;28;66982;-42
2023/10/21 00:37:05;;;;;;;;;;;;;;;30.12;79.66;101160.06;5016095;28;70527;-42
2023/10/21 00:39:38;;;;;;;;;;;;;;;30.12;79.85;101170.06;5038646;28;67016;-42
2023/10/21 00:42:13;;;;;;;;;;;;;;;30.14;79.56;101170.66;5038531;28;69735;-43
2023/10/21 00:44:45;;;;;;;;;;;;;;;30.13;79.57;101172.56;5040515;28;66401;-44
2023/10/21 00:47:19;;;;;;;;;;;;;;;30.14;79.13;101163.38;5034358;28;70894;-41
2023/10/21 00:49:53;;;;;;;;;;;;;;;30.14;78.98;101166.09;5029156;28;66678;-41
2023/10/21 00:52:30;;;;;;;;;;;;;;;30.15;79.21;101177.78;5037120;28;70634;-41
2023/10/21 00:55:04;;;;;;;;;;;;;;;30.15;78.82;101181.31;5039367;28;65741;-41
2023/10/21 00:57:36;;;;;;;;;;;;;;;30.15;79.30;101180.47;5037502;28;70682;-42
2023/10/21 01:00:13;;;;;;;;;;;;;;;30.18;78.75;101186.28;5019484;28;65672;-42
2023/10/21 01:02:46;;;;;;;;;;;;;;;30.19;78.82;101189.81;5034391;28;70718;-42
2023/10/21 01:05:29;;;;;;;;;;;;;;;30.20;78.92;101192.34;5022014;28;66769;-42
2023/10/21 01:08:05;;;;;;;;;;;;;;;30.23;78.75;101189.25;5027463;28;70282;-41
2023/10/21 01:10:51;;;;;;;;;;;;;;;30.23;79.45;101200.06;5044234;28;67227;-42
2023/10/21 01:13:37;;;;;;;;;;;;;;;30.26;79.48;101212.34;5036106;28;70845;-39
2023/10/21 01:16:14;;;;;;;;;;;;;;;30.25;80.08;101219.59;5026900;28;66918;-40
2023/10/21 01:18:59;;;;;;;;;;;;;;;30.28;79.67;101224.63;5035071;28;71426;-40
2023/10/21 01:21:39;;;;;;;;;;;;;;;30.31;79.27;101214.41;5024062;28;66838;-41
2023/10/21 01:24:30;;;;;;;;;;;;;;;30.33;79.09;101215.03;5041857;28;70793;-41
2023/10/21 01:27:17;;;;;;;;;;;;;;;30.34;79.13;101217.56;5030931;28;66415;-41
2023/10/21 01:30:11;;;;;;;;;;;;;;;30.36;79.47;101222.75;5036799;28;70360;-41
2023/10/21 01:32:53;;;;;;;;;;;;;;;30.37;79.06;101227.09;5049398;28;67130;-40
2023/10/21 01:35:24;;;;;;;;;;;;;;;30.39;78.90;101222.31;5039496;28;70763;-40
2023/10/21 01:38:03;;;;;;;;;;;;;;;30.38;79.35;101217.97;5038417;28;65232;-41
2023/10/21 01:40:42;;;;;;;;;;;;;;;30.40;79.57;101226.72;5044951;28;70164;-42
2023/10/21 01:43:13;;;;;;;;;;;;;;;30.40;79.37;101216.72;5042641;28;64431;-44
2023/10/21 01:45:52;;;;;;;;;;;;;;;30.41;79.17;101217.53;5010934;28;69914;-42
2023/10/21 01:48:32;;;;;;;;;;;;;;;30.43;78.90;101213.59;5039664;28;66300;-43
2023/10/21 01:51:14;;;;;;;;;;;;;;;30.44;79.84;101206.28;5039421;28;69771;-45
2023/10/21 01:53:54;;;;;;;;;;;;;;;30.46;79.26;101205.03;5040814;28;65451;-44
2023/10/21 01:56:25;;;;;;;;;;;;;;;30.51;78.03;101215.25;5041732;28;69985;-40
2023/10/21 01:59:08;;;;;;;;;;;;;;;30.54;77.00;101212.13;5026755;28;66256;-43
2023/10/21 02:01:41;;;;;;;;;;;;;;;30.58;76.33;101217.94;5041321;28;70024;-41
2023/10/21 02:04:14;;;;;;;;;;;;;;;30.61;76.05;101207.50;5040527;28;66550;-41
2023/10/21 02:06:47;;;;;;;;;;;;;;;30.63;75.52;101208.13;5022332;28;69699;-43
2023/10/21 02:09:17;;;;;;;;;;;;;;;30.65;75.45;101207.94;5040722;28;66153;-41
2023/10/21 02:11:49;;;;;;;;;;;;;;;30.66;75.51;101205.00;5040370;28;70193;-42
2023/10/21 02:14:23;;;;;;;;;;;;;;;30.68;75.03;101208.34;5039442;28;66997;-41
2023/10/21 02:16:53;;;;;;;;;;;;;;;30.70;75.15;101206.25;5034063;28;69562;-42
2023/10/21 02:19:25;;;;;;;;;;;;;;;30.73;74.52;101210.44;5046351;28;65693;-46
2023/10/21 02:21:55;;;;;;;;;;;;;;;30.75;74.56;101212.91;5028297;28;70796;-40
2023/10/21 02:24:28;;;;;;;;;;;;;;;30.76;74.24;101204.59;5041427;28;66070;-45
2023/10/21 02:27:19;;;;;;;;;;;;;;;30.79;74.58;101214.16;5052896;28;69320;-42
2023/10/21 02:29:50;;;;;;;;;;;;;;;30.80;73.80;101215.84;5038344;28;65744;-41
2023/10/21 02:32:22;;;;;;;;;;;;;;;30.82;74.11;101209.19;5031539;28;69890;-40
2023/10/21 02:34:58;;;;;;;;;;;;;;;30.84;74.16;101209.81;5054122;28;66035;-41
2023/10/21 02:37:31;;;;;;;;;;;;;;;30.85;75.75;101202.50;5039626;28;70398;-41
2023/10/21 02:40:21;;;;;;;;;;;;;;;30.81;76.33;101207.50;5020341;28;66385;-42
2023/10/21 02:42:51;;;;;;;;;;;;;;;30.84;76.16;101211.66;5040468;28;70764;-40
2023/10/21 02:45:24;;;;;;;;;;;;;;;30.84;74.37;101217.06;5038929;28;66471;-42
2023/10/21 02:47:57;;;;;;;;;;;;;;;30.76;73.41;101220.84;5041670;28;70801;-41
2023/10/21 02:50:36;;;;;;;;;;;;;;;30.69;72.51;101218.13;5039691;28;66235;-41
2023/10/21 02:53:16;;;;;;;;;;;;;;;30.68;70.33;101219.19;5049503;28;70941;-41
2023/10/21 02:55:51;;;;;;;;;;;;;;;30.63;70.24;101216.25;5052161;28;66485;-42
2023/10/21 02:58:22;;;;;;;;;;;;;;;30.62;68.22;101214.59;5037103;28;70021;-41
2023/10/21 03:00:52;;;;;;;;;;;;;;;30.57;67.87;101222.53;5037637;28;66719;-39
2023/10/21 03:03:22;;;;;;;;;;;;;;;30.49;66.68;101226.28;5057209;28;70721;-41
2023/10/21 03:06:00;;;;;;;;;;;;;;;30.47;65.27;101222.09;5037923;28;67271;-39
2023/10/21 03:08:49;;;;;;;;;;;;;;;30.36;64.41;101214.63;5052957;28;70445;-41
2023/10/21 03:11:19;;;;;;;;;;;;;;;30.33;63.35;101210.47;5055198;28;66931;-40
2023/10/21 03:13:55;;;;;;;;;;;;;;;30.32;63.04;101216.09;5038297;28;70384;-41
2023/10/21 03:16:25;;;;;;;;;;;;;;;30.30;62.27;101210.88;5035344;28;66339;-40
2023/10/21 03:18:55;;;;;;;;;;;;;;;30.27;61.45;101214.81;5034785;28;69539;-41
2023/10/21 03:21:51;;;;;;;;;;;;;;;30.31;61.46;101211.69;5033391;28;66288;-40
2023/10/21 03:24:24;;;;;;;;;;;;;;;30.25;59.86;101218.78;5049559;28;69629;-41
2023/10/21 03:26:54;;;;;;;;;;;;;;;30.16;59.54;101225.41;5035942;28;65994;-39
2023/10/21 03:29:27;;;;;;;;;;;;;;;30.19;60.45;101220.41;5035092;28;69697;-40
2023/10/21 03:31:57;;;;;;;;;;;;;;;30.16;59.10;101220.84;5034733;28;66040;-40
2023/10/21 03:34:27;;;;;;;;;;;;;;;30.13;58.63;101218.53;5035945;28;69701;-40
2023/10/21 03:36:58;;;;;;;;;;;;;;;30.16;60.08;101220.84;5023536;28;66642;-41
2023/10/21 03:39:30;;;;;;;;;;;;;;;30.12;56.89;101216.06;5051475;28;69070;-40
2023/10/21 03:42:00;;;;;;;;;;;;;;;30.13;57.90;101204.19;5050824;28;66021;-39
2023/10/21 03:44:39;;;;;;;;;;;;;;;30.14;56.80;101201.25;5036276;28;70418;-46
2023/10/21 03:47:33;;;;;;;;;;;;;;;30.09;56.23;101197.50;5022102;28;66349;-39
2023/10/21 03:50:03;;;;;;;;;;;;;;;30.07;55.43;101197.72;5051117;28;69920;-40
2023/10/21 03:52:38;;;;;;;;;;;;;;;30.10;55.42;101194.63;5036221;28;67987;-39
2023/10/21 03:55:11;;;;;;;;;;;;;;;30.08;55.18;101196.69;5034353;28;70493;-40
2023/10/21 03:57:43;;;;;;;;;;;;;;;30.08;54.95;101193.16;5036053;28;66390;-40
2023/10/21 04:00:23;;;;;;;;;;;;;;;30.09;56.28;101187.53;5033471;28;70439;-42
2023/10/21 04:03:02;;;;;;;;;;;;;;;30.10;56.67;101178.38;5037537;28;65632;-40
2023/10/21 04:05:33;;;;;;;;;;;;;;;30.12;55.96;101181.72;5035800;28;69923;-42
2023/10/21 04:08:07;;;;;;;;;;;;;;;30.10;55.47;101183.78;5039896;28;66983;-41
2023/10/21 04:10:37;;;;;;;;;;;;;;;30.14;55.21;101184.19;5038104;28;70797;-45
2023/10/21 04:13:07;;;;;;;;;;;;;;;30.15;54.31;101180.47;5038014;28;66866;-42
2023/10/21 04:15:37;;;;;;;;;;;;;;;30.14;54.59;101179.63;5037396;28;70209;-41
2023/10/21 04:18:11;;;;;;;;;;;;;;;30.13;53.58;101167.13;5039469;28;67053;-40
2023/10/21 04:20:41;;;;;;;;;;;;;;;30.11;53.44;101168.38;5037038;28;70785;-41
2023/10/21 04:23:14;;;;;;;;;;;;;;;30.12;53.89;101162.78;5038257;28;66666;-41
2023/10/21 04:25:44;;;;;;;;;;;;;;;30.13;52.87;101156.31;5028981;28;70573;-42
2023/10/21 04:28:17;;;;;;;;;;;;;;;30.13;54.02;101145.50;5037958;28;66810;-41
2023/10/21 04:30:50;;;;;;;;;;;;;;;30.10;53.07;101145.91;5038494;28;70371;-41
2023/10/21 04:33:22;;;;;;;;;;;;;;;30.20;54.84;101143.63;5036496;28;66868;-40
2023/10/21 04:35:58;;;;;;;;;;;;;;;30.21;52.76;101141.75;5039047;28;70218;-41
2023/10/21 04:38:31;;;;;;;;;;;;;;;30.19;52.87;101133.00;5039202;28;66537;-40
2023/10/21 04:41:02;;;;;;;;;;;;;;;30.22;52.06;101128.03;5036199;28;70582;-41
2023/10/21 04:43:32;;;;;;;;;;;;;;;30.19;52.11;101133.81;5030339;28;65672;-40
2023/10/21 04:46:06;;;;;;;;;;;;;;;30.18;51.36;101132.19;5042406;28;69131;-40
2023/10/21 04:48:59;;;;;;;;;;;;;;;30.21;51.15;101123.63;5033493;28;66913;-41
2023/10/21 04:51:42;;;;;;;;;;;;;;;30.15;51.93;101121.78;5037660;28;70920;-40
2023/10/21 04:54:13;;;;;;;;;;;;;;;30.15;51.45;101119.06;5037711;28;66687;-40
2023/10/21 04:56:46;;;;;;;;;;;;;;;30.23;51.32;101116.19;5031337;28;70520;-40
2023/10/21 04:59:17;;;;;;;;;;;;;;;30.19;51.02;101117.59;5030064;28;66724;-40
2023/10/21 05:01:51;;;;;;;;;;;;;;;30.18;51.24;101110.53;5028618;28;70544;-42
2023/10/21 05:04:22;;;;;;;;;;;;;;;30.17;50.36;101113.44;5034808;28;67005;-40
2023/10/21 05:06:54;;;;;;;;;;;;;;;30.12;50.74;101105.97;5036927;28;69382;-40
2023/10/21 05:09:27;;;;;;;;;;;;;;;30.19;51.47;101104.06;5039546;28;66199;-39
2023/10/21 05:12:06;;;;;;;;;;;;;;;30.25;50.11;101091.59;5034385;28;70442;-41
2023/10/21 05:14:36;;;;;;;;;;;;;;;30.27;50.04;101082.22;5038403;28;66995;-40
2023/10/21 05:17:07;;;;;;;;;;;;;;;30.29;49.76;101082.03;5036840;28;69886;-40
2023/10/21 05:19:40;;;;;;;;;;;;;;;30.30;49.92;101086.38;5036194;28;66027;-41
2023/10/21 05:22:13;;;;;;;;;;;;;;;30.31;49.44;101077.22;5034416;28;70235;-40
2023/10/21 05:24:43;;;;;;;;;;;;;;;30.31;49.42;101070.97;5036113;28;66674;-40
2023/10/21 05:27:17;;;;;;;;;;;;;;;30.31;49.06;101060.16;5033979;28;69564;-41
2023/10/21 05:29:48;;;;;;;;;;;;;;;30.30;48.34;101064.75;5038912;28;66725;-42
2023/10/21 05:32:21;;;;;;;;;;;;;;;30.31;48.80;101052.03;5026225;28;69997;-41
2023/10/21 05:34:53;;;;;;;;;;;;;;;30.30;47.75;101047.69;5037667;28;66798;-40
2023/10/21 05:37:23;;;;;;;;;;;;;;;30.31;48.16;101043.91;5040340;28;69686;-41
2023/10/21 05:39:54;;;;;;;;;;;;;;;30.32;47.77;101048.31;5033230;28;66263;-41
2023/10/21 05:42:26;;;;;;;;;;;;;;;30.30;47.55;101031.44;5026606;28;69997;-40
2023/10/21 05:45:00;;;;;;;;;;;;;;;30.31;47.78;101044.75;5033746;28;64956;-40
2023/10/21 05:47:36;;;;;;;;;;;;;;;30.32;47.20;101023.94;5034792;28;69989;-41
2023/10/21 05:50:06;;;;;;;;;;;;;;;30.32;47.08;101023.94;5043704;28;65915;-41
2023/10/21 05:52:37;;;;;;;;;;;;;;;30.26;46.97;101009.41;5039036;28;69864;-40
2023/10/21 05:55:08;;;;;;;;;;;;;;;30.34;47.20;101008.31;5031164;28;66579;-40
2023/10/21 05:57:39;;;;;;;;;;;;;;;30.35;47.25;100996.47;5039027;28;69451;-41
2023/10/21 06:00:12;;;;;;;;;;;;;;;30.35;47.03;100983.75;5037053;28;66347;-42
2023/10/21 06:02:42;;;;;;;;;;;;;;;30.38;46.54;100987.91;5026972;28;70295;-41
2023/10/21 06:05:16;;;;;;;;;;;;;;;30.39;47.41;100976.03;5038825;28;66948;-39
2023/10/21 06:08:07;;;;;;;;;;;;;;;30.40;46.95;100978.53;5031458;28;69581;-40
2023/10/21 06:10:39;;;;;;;;;;;;;;;30.44;47.05;100968.09;5042124;28;66026;-41
2023/10/21 06:13:09;;;;;;;;;;;;;;;30.47;47.11;100957.66;5040281;28;68878;-40
2023/10/21 06:15:39;;;;;;;;;;;;;;;30.50;47.38;100953.69;5042229;28;66644;-40
2023/10/21 06:18:14;;;;;;;;;;;;;;;30.54;46.98;100946.00;5054767;28;71469;-40
2023/10/21 06:20:49;;;;;;;;;;;;;;;30.54;46.49;100949.53;5042016;28;66808;-41
2023/10/21 06:23:20;;;;;;;;;;;;;;;30.56;46.95;100942.00;5040276;28;70902;-40
2023/10/21 06:25:50;;;;;;;;;;;;;;;30.56;46.75;100922.22;5038735;28;66518;-41
2023/10/21 06:28:20;;;;;;;;;;;;;;;30.60;46.63;100923.47;5038149;28;70402;-41
2023/10/21 06:30:52;;;;;;;;;;;;;;;30.64;46.44;100920.06;5041368;28;67485;-41
2023/10/21 06:33:27;;;;;;;;;;;;;;;30.68;46.21;100917.78;5027938;28;70042;-42
2023/10/21 06:36:00;;;;;;;;;;;;;;;30.69;46.35;100917.56;5039200;28;65891;-44
2023/10/21 06:38:31;;;;;;;;;;;;;;;30.68;45.91;100907.78;5039134;28;69036;-41
2023/10/21 06:41:02;;;;;;;;;;;;;;;30.72;46.05;100916.28;5040731;28;66964;-39
2023/10/21 06:43:48;;;;;;;;;;;;;;;30.73;45.90;100912.56;5041143;28;69160;-40
2023/10/21 06:46:24;;;;;;;;;;;;;;;30.75;45.89;100904.19;5039143;28;66061;-40
2023/10/21 06:48:54;;;;;;;;;;;;;;;30.78;46.06;100903.75;5047141;28;69995;-40
2023/10/21 06:51:32;;;;;;;;;;;;;;;30.73;45.77;100889.00;5039998;28;65984;-40
2023/10/21 06:54:09;;;;;;;;;;;;;;;30.76;45.39;100887.75;5037040;28;69543;-40
2023/10/21 06:56:39;;;;;;;;;;;;;;;30.79;45.28;100889.19;5039332;28;65637;-41
2023/10/21 06:59:09;;;;;;;;;;;;;;;30.80;45.55;100885.44;5039006;28;70631;-40
2023/10/21 07:01:55;;;;;;;;;;;;;;;30.82;45.44;100891.47;5035717;28;66148;-40
2023/10/21 07:04:26;;;;;;;;;;;;;;;30.81;45.52;100887.91;5030521;28;69792;-41
2023/10/21 07:07:01;;;;;;;;;;;;;;;30.80;45.38;100880.84;5034419;28;66623;-41
2023/10/21 07:09:31;;;;;;;;;;;;;;;30.81;45.02;100884.38;5036788;28;70374;-40
2023/10/21 07:12:04;;;;;;;;;;;;;;;30.79;45.46;100890.00;5027482;28;66986;-41
2023/10/21 07:14:36;;;;;;;;;;;;;;;30.79;45.20;100891.88;5039693;28;70538;-40
2023/10/21 07:17:07;;;;;;;;;;;;;;;30.81;45.28;100896.03;5039088;28;66102;-41
2023/10/21 07:19:43;;;;;;;;;;;;;;;30.82;45.03;100899.59;5039392;28;70217;-41
2023/10/21 07:22:13;;;;;;;;;;;;;;;30.85;44.96;100899.16;5037800;28;66679;-41
2023/10/21 07:24:46;;;;;;;;;;;;;;;30.86;44.84;100900.81;5032489;28;70017;-40
2023/10/21 07:27:17;;;;;;;;;;;;;;;30.87;45.13;100897.03;5033000;28;66664;-41
2023/10/21 07:29:51;;;;;;;;;;;;;;;30.90;45.47;100902.03;5035866;28;70686;-40
2023/10/21 07:32:25;;;;;;;;;;;;;;;30.89;45.10;100894.94;5036993;28;66949;-40
2023/10/21 07:34:59;;;;;;;;;;;;;;;30.93;45.18;100907.84;5028074;28;71016;-40
2023/10/21 07:37:50;;;;;;;;;;;;;;;30.92;45.43;100894.50;5025204;28;66346;-40
2023/10/21 07:40:23;;;;;;;;;;;;;;;30.92;45.08;100894.50;5047115;28;69791;-39
2023/10/21 07:43:13;;;;;;;;;;;;;;;30.95;45.38;100888.66;5023787;28;67079;-40
2023/10/21 07:45:44;;;;;;;;;;;;;;;30.98;45.18;100877.41;5037894;28;69609;-40
2023/10/21 07:48:17;;;;;;;;;;;;;;;30.98;45.25;100877.41;5038403;28;66882;-40
2023/10/21 07:50:55;;;;;;;;;;;;;;;30.98;45.00;100871.97;5042035;28;69810;-41
2023/10/21 07:53:34;;;;;;;;;;;;;;;30.98;45.34;100861.16;5038089;28;65979;-40
2023/10/21 07:56:04;;;;;;;;;;;;;;;31.00;45.12;100853.59;5040481;28;69467;-39
2023/10/21 07:58:46;;;;;;;;;;;;;;;31.01;45.27;100849.00;5043560;28;66120;-40
2023/10/21 08:01:19;;;;;;;;;;;;;;;31.00;45.36;100848.19;5033335;28;69743;-40
2023/10/21 08:03:52;;;;;;;;;;;;;;;31.02;45.39;100856.09;5035047;28;67086;-40
2023/10/21 08:06:25;;;;;;;;;;;;;;;31.03;44.99;100852.34;5036595;28;69824;-40
2023/10/21 08:09:05;;;;;;;;;;;;;;;31.02;45.36;100851.50;5031917;28;65701;-40
2023/10/21 08:11:38;;;;;;;;;;;;;;;31.07;45.33;100854.38;5031317;28;70473;-40
2023/10/21 08:14:08;;;;;;;;;;;;;;;31.09;44.94;100849.56;5026048;28;66422;-40
2023/10/21 08:16:38;;;;;;;;;;;;;;;31.13;46.67;100842.66;5028488;28;70184;-40
2023/10/21 08:19:09;;;;;;;;;;;;;;;31.05;52.40;100856.47;5035649;28;65314;-41
2023/10/21 08:21:42;;;;;;;;;;;;;;;31.04;58.83;100856.72;5026138;28;70114;-40
2023/10/21 08:24:13;;;;;;;;;;;;;;;31.13;61.73;100864.31;5034581;28;65485;-41
2023/10/21 08:26:43;;;;;;;;;;;;;;;31.19;63.44;100868.03;5037289;28;69197;-42
2023/10/21 08:29:17;;;;;;;;;;;;;;;31.27;64.51;100872.34;5039080;28;66283;-42
2023/10/21 08:31:47;;;;;;;;;;;;;;;31.31;65.00;100876.25;5030898;28;70052;-43
2023/10/21 08:34:18;;;;;;;;;;;;;;;31.36;66.17;100885.41;5029793;28;67114;-42
2023/10/21 08:37:11;;;;;;;;;;;;;;;31.44;66.05;100892.41;5035252;28;69807;-41
2023/10/21 08:39:48;;;;;;;;;;;;;;;31.51;66.87;100898.63;5036326;28;66432;-43
2023/10/21 08:42:18;;;;;;;;;;;;;;;31.55;67.40;100896.28;5038317;28;70679;-41
2023/10/21 08:44:49;;;;;;;;;;;;;;;31.58;67.40;100902.06;5039380;28;67085;-41
2023/10/21 08:47:20;;;;;;;;;;;;;;;31.66;67.67;100910.97;5051704;28;70573;-41
2023/10/21 08:49:57;;;;;;;;;;;;;;;31.71;68.03;100921.97;5032025;28;66710;-40
2023/10/21 08:52:29;;;;;;;;;;;;;;;31.75;67.96;100925.88;5037659;28;70872;-39
2023/10/21 08:55:05;;;;;;;;;;;;;;;31.52;68.25;100889.41;5042186;28;66331;-40
2023/10/21 08:57:36;;;;;;;;;;;;;;;31.84;68.40;100929.94;5034229;28;70541;-42
2023/10/21 09:00:09;;;;;;;;;;;;;;;31.87;68.85;100921.34;5037741;28;66672;-41
2023/10/21 09:02:42;;;;;;;;;;;;;;;31.87;68.85;100913.22;5037084;28;69621;-41
2023/10/21 09:05:17;;;;;;;;;;;;;;;31.88;69.06;100925.75;5036885;28;66635;-41
2023/10/21 09:07:49;;;;;;;;;;;;;;;31.94;69.34;100929.47;5039232;28;70604;-40
2023/10/21 09:10:21;;;;;;;;;;;;;;;31.94;69.56;100934.91;5033002;28;65971;-42
2023/10/21 09:12:51;;;;;;;;;;;;;;;31.70;69.54;100902.13;5034758;28;70275;-40
2023/10/21 09:15:34;;;;;;;;;;;;;;;31.97;69.72;100942.56;5043187;28;66503;-40
2023/10/21 09:18:11;;;;;;;;;;;;;;;31.98;69.88;100947.78;5024443;28;70376;-41
2023/10/21 09:20:49;;;;;;;;;;;;;;;31.98;70.46;100964.06;5039017;28;66687;-41
2023/10/21 09:23:22;;;;;;;;;;;;;;;32.00;70.29;100967.38;5037899;28;70548;-40
2023/10/21 09:25:54;;;;;;;;;;;;;;;32.00;70.39;100978.22;5029762;28;66628;-40
2023/10/21 09:28:27;;;;;;;;;;;;;;;31.97;70.75;100994.94;5048898;28;69745;-40
2023/10/21 09:30:58;;;;;;;;;;;;;;;31.95;70.49;100997.06;5037324;28;66386;-40
2023/10/21 09:33:31;;;;;;;;;;;;;;;31.90;69.90;101002.31;5031042;28;70803;-41
2023/10/21 09:36:04;;;;;;;;;;;;;;;31.78;68.19;101004.09;5038300;28;66411;-41
2023/10/21 09:39:00;;;;;;;;;;;;;;;31.41;67.18;100952.50;5040175;28;69413;-41
2023/10/21 09:41:31;;;;;;;;;;;;;;;31.63;67.31;100998.19;5035852;28;66406;-43
2023/10/21 09:44:05;;;;;;;;;;;;;;;31.55;65.53;100993.88;5034221;28;70168;-42
2023/10/21 09:46:51;;;;;;;;;;;;;;;31.45;65.41;100986.22;5030719;28;66775;-43
2023/10/21 09:49:23;;;;;;;;;;;;;;;31.37;64.80;100983.78;5039430;28;70233;-42
2023/10/21 09:52:00;;;;;;;;;;;;;;;31.38;65.44;100972.75;5042823;28;65242;-41
2023/10/21 09:54:43;;;;;;;;;;;;;;;31.44;67.29;100976.44;5041103;28;69825;-41
2023/10/21 09:57:16;;;;;;;;;;;;;;;31.50;67.93;100988.28;5041204;28;67118;-42
2023/10/21 09:59:47;;;;;;;;;;;;;;;31.60;68.07;100984.03;5041790;28;70589;-42
2023/10/21 10:02:30;;;;;;;;;;;;;;;31.60;67.89;100972.34;5040888;28;66749;-42
2023/10/21 10:05:06;;;;;;;;;;;;;;;31.67;67.67;100972.28;5029091;28;70400;-42
2023/10/21 10:07:40;;;;;;;;;;;;;;;31.67;68.68;100988.53;5040748;28;66492;-40
2023/10/21 10:10:13;;;;;;;;;;;;;;;31.69;69.15;101005.44;5042002;28;70538;-42
2023/10/21 10:12:52;;;;;;;;;;;;;;;31.71;69.44;100989.78;5038372;28;65832;-41
2023/10/21 10:15:27;;;;;;;;;;;;;;;31.68;69.55;100992.91;5038079;28;69318;-41
2023/10/21 10:17:58;;;;;;;;;;;;;;;31.69;69.76;101006.25;5038303;28;66237;-42
2023/10/21 10:20:28;;;;;;;;;;;;;;;31.70;69.87;101004.38;5036919;28;70145;-41
2023/10/21 10:22:59;;;;;;;;;;;;;;;31.70;69.97;100998.94;5039086;28;66666;-41
2023/10/21 10:25:32;;;;;;;;;;;;;;;31.69;69.84;101005.44;5049602;28;69861;-41
2023/10/21 10:28:05;;;;;;;;;;;;;;;31.66;69.97;101003.19;5035133;28;66142;-40
2023/10/21 10:30:46;;;;;;;;;;;;;;;31.67;69.90;100993.97;5040263;28;70609;-41
2023/10/21 10:33:18;;;;;;;;;;;;;;;31.68;69.88;101003.75;5040299;28;65968;-41
2023/10/21 10:35:50;;;;;;;;;;;;;;;31.66;69.98;101011.31;5038958;28;70231;-42
2023/10/21 10:38:24;;;;;;;;;;;;;;;31.65;70.16;101013.19;5036133;28;66165;-42
2023/10/21 10:41:09;;;;;;;;;;;;;;;31.64;70.00;101022.38;5037671;28;70336;-41
2023/10/21 10:43:41;;;;;;;;;;;;;;;31.62;70.14;101019.03;5037533;28;66865;-41
2023/10/21 10:46:15;;;;;;;;;;;;;;;31.61;70.52;101029.06;5036202;28;70113;-42
2023/10/21 10:48:51;;;;;;;;;;;;;;;31.61;70.68;101029.06;5041113;28;66347;-41
2023/10/21 10:51:23;;;;;;;;;;;;;;;31.59;70.56;101036.59;5038473;28;70047;-41
2023/10/21 10:54:00;;;;;;;;;;;;;;;31.58;70.59;101045.78;5041647;28;66158;-41
2023/10/21 10:56:40;;;;;;;;;;;;;;;31.57;70.73;101054.97;5037057;28;70347;-41
2023/10/21 10:59:14;;;;;;;;;;;;;;;31.56;70.84;101057.88;5040159;28;66418;-42
2023/10/21 11:01:45;;;;;;;;;;;;;;;31.55;71.42;101051.63;5040043;28;70483;-41
2023/10/21 11:04:15;;;;;;;;;;;;;;;31.56;71.86;101058.72;5030102;28;66721;-41
2023/10/21 11:06:45;;;;;;;;;;;;;;;31.56;72.07;101058.72;5054061;28;70865;-42
2023/10/21 11:09:19;;;;;;;;;;;;;;;31.58;72.27;101062.03;5039502;28;65376;-42
2023/10/21 11:11:54;;;;;;;;;;;;;;;31.58;72.27;101056.63;5036244;28;70882;-41
2023/10/21 11:14:38;;;;;;;;;;;;;;;31.58;72.21;101053.91;5040095;28;66125;-43
2023/10/21 11:17:11;;;;;;;;;;;;;;;31.58;72.32;101056.63;5037647;28;70147;-41
2023/10/21 11:19:43;;;;;;;;;;;;;;;31.57;72.22;101068.53;5040282;28;66926;-41
2023/10/21 11:22:21;;;;;;;;;;;;;;;31.58;72.39;101061.22;5028627;28;69946;-42
2023/10/21 11:24:51;;;;;;;;;;;;;;;31.58;72.60;101067.47;5028875;28;67432;-43
2023/10/21 11:27:22;;;;;;;;;;;;;;;31.58;72.32;101070.19;5036504;28;70214;-41
2023/10/21 11:29:53;;;;;;;;;;;;;;;31.57;72.40;101082.09;5021051;28;67301;-41
2023/10/21 11:32:34;;;;;;;;;;;;;;;31.60;72.87;101078.94;5030864;28;69015;-43
2023/10/21 11:35:05;;;;;;;;;;;;;;;31.61;73.21;101082.47;5053100;28;65336;-41
2023/10/21 11:37:37;;;;;;;;;;;;;;;31.61;73.29;101083.28;5039427;28;69984;-43
2023/10/21 11:40:15;;;;;;;;;;;;;;;31.60;73.22;101081.66;5036600;28;66554;-41
2023/10/21 11:42:57;;;;;;;;;;;;;;;31.62;73.08;101084.13;5035982;28;70373;-42
2023/10/21 11:45:30;;;;;;;;;;;;;;;31.60;73.37;101080.81;5041686;28;66998;-41
2023/10/21 11:48:10;;;;;;;;;;;;;;;31.61;73.63;101087.88;5036085;28;69170;-42
2023/10/21 11:50:44;;;;;;;;;;;;;;;31.61;73.53;101094.13;5037988;28;65845;-41
2023/10/21 11:53:19;;;;;;;;;;;;;;;31.61;73.22;101099.56;5030097;28;70766;-40
2023/10/21 12:46:18;;;;;;;;;;;;;;;31.63;75.24;101177.19;5016412;28;67378;-42
2023/10/21 12:48:52;;;;;;;;;;;;;;;31.63;75.11;101172.56;5028104;28;70533;-42
2023/10/21 12:51:30;;;;;;;;;;;;;;;31.63;75.17;101182.59;5043267;28;66053;-42
2023/10/21 12:54:09;;;;;;;;;;;;;;;31.59;75.22;101180.31;5039232;28;70197;-42
2023/10/21 12:56:46;;;;;;;;;;;;;;;31.59;75.31;101184.88;5030176;28;66686;-43
2023/10/21 12:59:20;;;;;;;;;;;;;;;31.45;73.28;101186.03;5037797;28;70587;-43
2023/10/21 13:01:53;;;;;;;;;;;;;;;31.35;72.52;101197.31;5037896;28;66266;-45
2023/10/21 13:04:25;;;;;;;;;;;;;;;31.26;71.43;101198.59;5040700;28;71031;-40
2023/10/21 13:06:56;;;;;;;;;;;;;;;31.14;70.44;101193.84;5039402;28;67295;-41
2023/10/21 13:09:29;;;;;;;;;;;;;;;31.06;69.15;101204.91;5038273;28;69210;-41
2023/10/21 13:12:09;;;;;;;;;;;;;;;31.02;68.26;101211.00;5037835;28;65516;-41
2023/10/21 13:14:42;;;;;;;;;;;;;;;30.91;67.25;101217.91;5026958;28;70650;-40
2023/10/21 13:17:12;;;;;;;;;;;;;;;30.87;66.08;101222.06;5036932;28;65920;-39
2023/10/21 13:19:46;;;;;;;;;;;;;;;30.80;65.05;101226.69;5037751;28;69753;-41
2023/10/21 13:22:16;;;;;;;;;;;;;;;30.77;66.37;101227.91;5034688;28;67103;-40
2023/10/21 13:24:55;;;;;;;;;;;;;;;30.75;65.78;101229.16;5039077;28;69757;-42
2023/10/21 13:27:48;;;;;;;;;;;;;;;30.65;66.64;101230.44;5042781;28;66925;-42
2023/10/21 13:30:20;;;;;;;;;;;;;;;30.65;67.69;101235.84;5041787;28;69514;-41
2023/10/21 13:32:51;;;;;;;;;;;;;;;30.62;67.62;101236.28;5020420;28;66442;-42
2023/10/21 13:35:27;;;;;;;;;;;;;;;30.61;67.41;101248.13;5042346;28;69619;-40
2023/10/21 13:38:09;;;;;;;;;;;;;;;30.55;66.23;101251.66;5039236;28;65960;-39
2023/10/21 13:40:39;;;;;;;;;;;;;;;30.50;65.10;101251.47;5043162;28;70297;-39
2023/10/21 13:43:10;;;;;;;;;;;;;;;30.46;63.89;101252.94;5041438;28;65891;-40
2023/10/21 13:45:43;;;;;;;;;;;;;;;30.39;63.49;101246.69;5041785;28;69177;-40
2023/10/21 13:48:19;;;;;;;;;;;;;;;30.33;62.21;101252.94;5036063;28;67136;-40
2023/10/21 13:50:53;;;;;;;;;;;;;;;30.30;61.84;101247.94;5034921;28;70225;-40
2023/10/21 13:53:26;;;;;;;;;;;;;;;30.23;61.18;101248.78;5042354;28;66691;-41
2023/10/21 13:56:06;;;;;;;;;;;;;;;30.20;60.88;101241.03;5041205;28;70477;-40
2023/10/21 13:58:36;;;;;;;;;;;;;;;30.16;60.36;101242.47;5040970;28;66394;-41
2023/10/21 14:01:26;;;;;;;;;;;;;;;30.13;59.44;101236.66;5041476;28;69807;-39
2023/10/21 14:03:56;;;;;;;;;;;;;;;30.08;59.48;101237.25;5039662;28;66940;-41